Main page
METAR-TAF:

METAR-TAF

Airports :

Yap International Airport

Yap, Micronesia

latitude: 09-29N, longitude: 138-05E, elevation: 28 m

Current weather observation

The report was made 31 minutes ago, at 22:50 UTC
Wind 4 kt from variable directions
Temperature 28°C
Humidity 89%
Pressure 1010 hPa
Visibility: 19.3 km
Few clouds at a height of 1600 ft
Scattered clouds at a height of 13000 ft
Broken clouds at a height of 30000 ft

METAR: PTYA 212250Z VRB04KT 12SM FEW016 SCT130 BKN300 28/26 A2983 RMK SLP101 T02780256

Time: 09:21 (23:21 UTC)

Forecast

The report was made 5 hours and 54 minutes ago, at 17:27 UTC
Forecast valid from 21 at 18 UTC to 22 at 18 UTC
Wind 9 kt from the East/Northeast
Visibility: 10 km
Scattered clouds at a height of 1600 ft
Scattered clouds at a height of 5000 ft

TAF: PTYA 211727Z 2118/2218 07009KT P6SM SCT016 SCT050

Weather observations and forecasts of more than 4000 airports (METAR and TAF reports).

The available stations are represented by yellow and red dots on the map.

Hover mouse over dot to see the name of the station.

Then click to see weather observations and forecasts.

To change the map : click on the green buttons with a black cross to zoom in, on the green button with a dash to zoom out, or on the green arrows for adjacent maps.


METAR-TAF: